sensor_id;sensor_type;location;lat;lon;timestamp;temperature;humidity
19970;DHT22;10146;47.754;9.566;2023-12-20T00:00:25;4.40;99.90
19970;DHT22;10146;47.754;9.566;2023-12-20T00:02:50;4.30;99.90
19970;DHT22;10146;47.754;9.566;2023-12-20T00:05:18;4.30;99.90
19970;DHT22;10146;47.754;9.566;2023-12-20T00:07:44;4.30;99.90
19970;DHT22;10146;47.754;9.566;2023-12-20T00:10:09;4.40;99.90
19970;DHT22;10146;47.754;9.566;2023-12-20T00:12:35;4.40;99.90
19970;DHT22;10146;47.754;9.566;2023-12-20T00:15:01;4.40;99.90
19970;DHT22;10146;47.754;9.566;2023-12-20T00:17:26;4.40;99.90
19970;DHT22;10146;47.754;9.566;2023-12-20T00:19:52;4.40;99.90
19970;DHT22;10146;47.754;9.566;2023-12-20T00:22:17;4.50;99.90
19970;DHT22;10146;47.754;9.566;2023-12-20T00:24:43;4.50;99.90
19970;DHT22;10146;47.754;9.566;2023-12-20T00:27:09;4.50;99.90
19970;DHT22;10146;47.754;9.566;2023-12-20T00:29:34;4.60;99.90
19970;DHT22;10146;47.754;9.566;2023-12-20T00:32:00;4.60;99.90
19970;DHT22;10146;47.754;9.566;2023-12-20T00:34:25;4.60;99.90
19970;DHT22;10146;47.754;9.566;2023-12-20T00:36:51;4.60;99.90
19970;DHT22;10146;47.754;9.566;2023-12-20T00:39:16;4.70;99.90
19970;DHT22;10146;47.754;9.566;2023-12-20T00:41:42;4.60;99.90
19970;DHT22;10146;47.754;9.566;2023-12-20T00:44:08;4.60;99.90
19970;DHT22;10146;47.754;9.566;2023-12-20T00:46:33;4.60;99.90
19970;DHT22;10146;47.754;9.566;2023-12-20T00:48:59;4.60;99.90
19970;DHT22;10146;47.754;9.566;2023-12-20T00:51:24;4.60;99.90
19970;DHT22;10146;47.754;9.566;2023-12-20T00:53:50;4.60;99.90
19970;DHT22;10146;47.754;9.566;2023-12-20T00:56:20;4.60;99.90
19970;DHT22;10146;47.754;9.566;2023-12-20T00:58:45;4.60;99.90
19970;DHT22;10146;47.754;9.566;2023-12-20T01:01:11;4.60;99.90
19970;DHT22;10146;47.754;9.566;2023-12-20T01:03:36;4.60;99.90
19970;DHT22;10146;47.754;9.566;2023-12-20T01:06:02;4.60;99.90
19970;DHT22;10146;47.754;9.566;2023-12-20T01:08:29;4.60;99.90
19970;DHT22;10146;47.754;9.566;2023-12-20T01:10:55;4.60;99.90
19970;DHT22;10146;47.754;9.566;2023-12-20T01:13:21;4.60;99.90
19970;DHT22;10146;47.754;9.566;2023-12-20T01:15:47;4.60;99.90
19970;DHT22;10146;47.754;9.566;2023-12-20T01:18:13;4.60;99.90
19970;DHT22;10146;47.754;9.566;2023-12-20T01:20:39;4.60;99.90
19970;DHT22;10146;47.754;9.566;2023-12-20T01:23:04;4.60;99.90
19970;DHT22;10146;47.754;9.566;2023-12-20T01:25:30;4.60;99.90
19970;DHT22;10146;47.754;9.566;2023-12-20T01:27:55;4.60;99.90
19970;DHT22;10146;47.754;9.566;2023-12-20T01:30:21;4.60;99.90
19970;DHT22;10146;47.754;9.566;2023-12-20T01:32:46;4.70;99.90
19970;DHT22;10146;47.754;9.566;2023-12-20T01:35:12;4.70;99.90
19970;DHT22;10146;47.754;9.566;2023-12-20T01:37:38;4.70;99.90
19970;DHT22;10146;47.754;9.566;2023-12-20T01:40:04;4.70;99.90
19970;DHT22;10146;47.754;9.566;2023-12-20T01:42:30;4.70;99.90
19970;DHT22;10146;47.754;9.566;2023-12-20T01:44:56;4.70;99.90
19970;DHT22;10146;47.754;9.566;2023-12-20T01:47:21;4.70;99.90
19970;DHT22;10146;47.754;9.566;2023-12-20T01:49:48;4.80;99.90
19970;DHT22;10146;47.754;9.566;2023-12-20T01:52:14;4.70;99.90
19970;DHT22;10146;47.754;9.566;2023-12-20T01:54:40;4.80;99.90
19970;DHT22;10146;47.754;9.566;2023-12-20T01:57:08;4.90;99.90
19970;DHT22;10146;47.754;9.566;2023-12-20T01:59:34;4.90;99.90
19970;DHT22;10146;47.754;9.566;2023-12-20T02:02:00;4.90;99.90
19970;DHT22;10146;47.754;9.566;2023-12-20T02:04:26;4.90;99.90
19970;DHT22;10146;47.754;9.566;2023-12-20T02:06:52;4.90;99.90
19970;DHT22;10146;47.754;9.566;2023-12-20T02:09:18;4.90;99.90
19970;DHT22;10146;47.754;9.566;2023-12-20T02:11:49;4.90;99.90
19970;DHT22;10146;47.754;9.566;2023-12-20T02:14:15;4.90;99.90
19970;DHT22;10146;47.754;9.566;2023-12-20T02:16:40;4.90;99.90
19970;DHT22;10146;47.754;9.566;2023-12-20T02:19:12;4.90;99.90
19970;DHT22;10146;47.754;9.566;2023-12-20T02:21:38;4.90;99.90
19970;DHT22;10146;47.754;9.566;2023-12-20T02:24:04;4.90;99.90
19970;DHT22;10146;47.754;9.566;2023-12-20T02:26:32;4.90;99.90
19970;DHT22;10146;47.754;9.566;2023-12-20T02:28:59;4.90;99.90
19970;DHT22;10146;47.754;9.566;2023-12-20T02:31:25;4.90;99.90
19970;DHT22;10146;47.754;9.566;2023-12-20T02:33:51;4.80;99.90
19970;DHT22;10146;47.754;9.566;2023-12-20T02:36:16;4.90;99.90
19970;DHT22;10146;47.754;9.566;2023-12-20T02:38:42;4.90;99.90
19970;DHT22;10146;47.754;9.566;2023-12-20T02:41:07;4.80;99.90
19970;DHT22;10146;47.754;9.566;2023-12-20T02:43:33;4.80;99.90
19970;DHT22;10146;47.754;9.566;2023-12-20T02:45:59;4.80;99.90
19970;DHT22;10146;47.754;9.566;2023-12-20T02:48:24;4.80;99.90
19970;DHT22;10146;47.754;9.566;2023-12-20T02:50:50;4.70;99.90
19970;DHT22;10146;47.754;9.566;2023-12-20T02:53:16;4.60;99.90
19970;DHT22;10146;47.754;9.566;2023-12-20T02:55:42;4.60;99.90
19970;DHT22;10146;47.754;9.566;2023-12-20T02:58:07;4.50;99.90
19970;DHT22;10146;47.754;9.566;2023-12-20T03:00:33;4.50;99.90
19970;DHT22;10146;47.754;9.566;2023-12-20T03:02:58;4.50;99.90
19970;DHT22;10146;47.754;9.566;2023-12-20T03:05:27;4.50;99.90
19970;DHT22;10146;47.754;9.566;2023-12-20T03:07:52;4.50;99.90
19970;DHT22;10146;47.754;9.566;2023-12-20T03:10:19;4.40;99.90
19970;DHT22;10146;47.754;9.566;2023-12-20T03:12:44;4.40;99.90
19970;DHT22;10146;47.754;9.566;2023-12-20T03:15:10;4.40;99.90
19970;DHT22;10146;47.754;9.566;2023-12-20T03:17:36;4.30;99.90
19970;DHT22;10146;47.754;9.566;2023-12-20T03:20:02;4.30;99.90
19970;DHT22;10146;47.754;9.566;2023-12-20T03:22:27;4.30;99.90
19970;DHT22;10146;47.754;9.566;2023-12-20T03:24:53;4.30;99.90
19970;DHT22;10146;47.754;9.566;2023-12-20T03:27:18;4.30;99.90
19970;DHT22;10146;47.754;9.566;2023-12-20T03:29:44;4.30;99.90
19970;DHT22;10146;47.754;9.566;2023-12-20T03:32:10;4.40;99.90
19970;DHT22;10146;47.754;9.566;2023-12-20T03:34:35;4.30;99.90
19970;DHT22;10146;47.754;9.566;2023-12-20T03:37:01;4.40;99.90
19970;DHT22;10146;47.754;9.566;2023-12-20T03:39:26;4.30;99.90
19970;DHT22;10146;47.754;9.566;2023-12-20T03:41:52;4.30;99.90
19970;DHT22;10146;47.754;9.566;2023-12-20T03:44:17;4.30;99.90
19970;DHT22;10146;47.754;9.566;2023-12-20T03:46:43;4.30;99.90
19970;DHT22;10146;47.754;9.566;2023-12-20T03:49:11;4.40;99.90
19970;DHT22;10146;47.754;9.566;2023-12-20T03:51:36;4.40;99.90
19970;DHT22;10146;47.754;9.566;2023-12-20T03:54:02;4.40;99.90
19970;DHT22;10146;47.754;9.566;2023-12-20T03:56:28;4.40;99.90
19970;DHT22;10146;47.754;9.566;2023-12-20T03:58:54;4.40;99.90
19970;DHT22;10146;47.754;9.566;2023-12-20T04:01:19;4.40;99.90
19970;DHT22;10146;47.754;9.566;2023-12-20T04:03:45;4.50;99.90
19970;DHT22;10146;47.754;9.566;2023-12-20T04:06:15;4.40;99.90
19970;DHT22;10146;47.754;9.566;2023-12-20T04:08:41;4.40;99.90
19970;DHT22;10146;47.754;9.566;2023-12-20T04:11:07;4.40;99.90
19970;DHT22;10146;47.754;9.566;2023-12-20T04:13:32;4.40;99.90
19970;DHT22;10146;47.754;9.566;2023-12-20T04:15:58;4.50;99.90
19970;DHT22;10146;47.754;9.566;2023-12-20T04:18:23;4.50;99.90
19970;DHT22;10146;47.754;9.566;2023-12-20T04:20:49;4.50;99.90
19970;DHT22;10146;47.754;9.566;2023-12-20T04:23:15;4.50;99.90
19970;DHT22;10146;47.754;9.566;2023-12-20T04:25:40;4.50;99.90
19970;DHT22;10146;47.754;9.566;2023-12-20T04:28:06;4.50;99.90
19970;DHT22;10146;47.754;9.566;2023-12-20T04:30:31;4.50;99.90
19970;DHT22;10146;47.754;9.566;2023-12-20T04:32:57;4.50;99.90
19970;DHT22;10146;47.754;9.566;2023-12-20T04:35:23;4.50;99.90
19970;DHT22;10146;47.754;9.566;2023-12-20T04:37:48;4.50;99.90
19970;DHT22;10146;47.754;9.566;2023-12-20T04:40:15;4.60;99.90
19970;DHT22;10146;47.754;9.566;2023-12-20T04:42:40;4.60;99.90
19970;DHT22;10146;47.754;9.566;2023-12-20T04:45:06;4.60;99.90
19970;DHT22;10146;47.754;9.566;2023-12-20T04:47:32;4.70;99.90
19970;DHT22;10146;47.754;9.566;2023-12-20T04:49:57;4.70;99.90
19970;DHT22;10146;47.754;9.566;2023-12-20T04:52:24;4.60;99.90
19970;DHT22;10146;47.754;9.566;2023-12-20T04:54:50;4.60;99.90
19970;DHT22;10146;47.754;9.566;2023-12-20T04:57:16;4.60;99.90
19970;DHT22;10146;47.754;9.566;2023-12-20T04:59:41;4.60;99.90
19970;DHT22;10146;47.754;9.566;2023-12-20T05:02:07;4.60;99.90
19970;DHT22;10146;47.754;9.566;2023-12-20T05:04:32;4.60;99.90
19970;DHT22;10146;47.754;9.566;2023-12-20T05:06:58;4.60;99.90
19970;DHT22;10146;47.754;9.566;2023-12-20T05:09:23;4.60;99.90
19970;DHT22;10146;47.754;9.566;2023-12-20T05:11:52;4.60;99.90
19970;DHT22;10146;47.754;9.566;2023-12-20T05:14:17;4.60;99.90
19970;DHT22;10146;47.754;9.566;2023-12-20T05:16:43;4.60;99.90
19970;DHT22;10146;47.754;9.566;2023-12-20T05:19:09;4.60;99.90
19970;DHT22;10146;47.754;9.566;2023-12-20T05:21:34;4.60;99.90
19970;DHT22;10146;47.754;9.566;2023-12-20T05:24:01;4.60;99.90
19970;DHT22;10146;47.754;9.566;2023-12-20T05:26:26;4.70;99.90
19970;DHT22;10146;47.754;9.566;2023-12-20T05:28:52;4.70;99.90
19970;DHT22;10146;47.754;9.566;2023-12-20T05:31:18;4.70;99.90
19970;DHT22;10146;47.754;9.566;2023-12-20T05:33:43;4.70;99.90
19970;DHT22;10146;47.754;9.566;2023-12-20T05:36:09;4.70;99.90
19970;DHT22;10146;47.754;9.566;2023-12-20T05:38:37;4.70;99.90
19970;DHT22;10146;47.754;9.566;2023-12-20T05:41:02;4.80;99.90
19970;DHT22;10146;47.754;9.566;2023-12-20T05:43:29;4.80;99.90
19970;DHT22;10146;47.754;9.566;2023-12-20T05:45:54;4.80;99.90
19970;DHT22;10146;47.754;9.566;2023-12-20T05:48:20;4.80;99.90
19970;DHT22;10146;47.754;9.566;2023-12-20T05:50:45;4.80;99.90
19970;DHT22;10146;47.754;9.566;2023-12-20T05:53:11;4.80;99.90
19970;DHT22;10146;47.754;9.566;2023-12-20T05:55:37;4.80;99.90
19970;DHT22;10146;47.754;9.566;2023-12-20T05:58:02;4.80;99.90
19970;DHT22;10146;47.754;9.566;2023-12-20T06:00:28;4.90;99.90
19970;DHT22;10146;47.754;9.566;2023-12-20T06:02:54;4.90;99.90
19970;DHT22;10146;47.754;9.566;2023-12-20T06:05:19;4.90;99.90
19970;DHT22;10146;47.754;9.566;2023-12-20T06:07:45;4.90;99.90
19970;DHT22;10146;47.754;9.566;2023-12-20T06:10:13;4.90;99.90
19970;DHT22;10146;47.754;9.566;2023-12-20T06:12:39;4.90;99.90
19970;DHT22;10146;47.754;9.566;2023-12-20T06:15:05;4.90;99.90
19970;DHT22;10146;47.754;9.566;2023-12-20T06:17:31;4.90;99.90
19970;DHT22;10146;47.754;9.566;2023-12-20T06:19:57;5.00;99.90
19970;DHT22;10146;47.754;9.566;2023-12-20T06:22:23;4.90;99.90
19970;DHT22;10146;47.754;9.566;2023-12-20T06:24:48;5.00;99.90
19970;DHT22;10146;47.754;9.566;2023-12-20T06:27:14;5.00;99.90
19970;DHT22;10146;47.754;9.566;2023-12-20T06:29:39;5.00;99.90
19970;DHT22;10146;47.754;9.566;2023-12-20T06:32:06;5.00;99.90
19970;DHT22;10146;47.754;9.566;2023-12-20T06:34:32;5.00;99.90
19970;DHT22;10146;47.754;9.566;2023-12-20T06:36:57;5.00;99.90
19970;DHT22;10146;47.754;9.566;2023-12-20T06:39:23;5.00;99.90
19970;DHT22;10146;47.754;9.566;2023-12-20T06:41:48;5.00;99.90
19970;DHT22;10146;47.754;9.566;2023-12-20T06:44:14;5.00;99.90
19970;DHT22;10146;47.754;9.566;2023-12-20T06:46:40;5.00;99.90
19970;DHT22;10146;47.754;9.566;2023-12-20T06:49:06;5.00;99.90
19970;DHT22;10146;47.754;9.566;2023-12-20T06:51:31;5.00;99.90
19970;DHT22;10146;47.754;9.566;2023-12-20T06:53:57;5.00;99.90
19970;DHT22;10146;47.754;9.566;2023-12-20T06:56:22;5.00;99.90
19970;DHT22;10146;47.754;9.566;2023-12-20T06:58:48;5.00;99.90
19970;DHT22;10146;47.754;9.566;2023-12-20T07:01:15;5.00;99.90
19970;DHT22;10146;47.754;9.566;2023-12-20T07:03:41;5.10;99.90
19970;DHT22;10146;47.754;9.566;2023-12-20T07:06:08;5.10;99.90
19970;DHT22;10146;47.754;9.566;2023-12-20T07:08:34;5.10;99.90
19970;DHT22;10146;47.754;9.566;2023-12-20T07:10:59;5.10;99.90
19970;DHT22;10146;47.754;9.566;2023-12-20T07:13:25;5.10;99.90
19970;DHT22;10146;47.754;9.566;2023-12-20T07:15:50;5.10;99.90
19970;DHT22;10146;47.754;9.566;2023-12-20T07:18:16;5.10;99.90
19970;DHT22;10146;47.754;9.566;2023-12-20T07:20:42;5.10;99.90
19970;DHT22;10146;47.754;9.566;2023-12-20T07:23:08;5.20;99.90
19970;DHT22;10146;47.754;9.566;2023-12-20T07:25:34;5.20;99.90
19970;DHT22;10146;47.754;9.566;2023-12-20T07:27:59;5.20;99.90
19970;DHT22;10146;47.754;9.566;2023-12-20T07:30:25;5.10;99.90
19970;DHT22;10146;47.754;9.566;2023-12-20T07:32:51;5.10;99.90
19970;DHT22;10146;47.754;9.566;2023-12-20T07:35:18;5.10;99.90
19970;DHT22;10146;47.754;9.566;2023-12-20T07:37:43;5.10;99.90
19970;DHT22;10146;47.754;9.566;2023-12-20T07:40:10;5.20;99.90
19970;DHT22;10146;47.754;9.566;2023-12-20T07:42:35;5.20;99.90
19970;DHT22;10146;47.754;9.566;2023-12-20T07:45:01;5.20;99.90
19970;DHT22;10146;47.754;9.566;2023-12-20T07:47:27;5.20;99.90
19970;DHT22;10146;47.754;9.566;2023-12-20T07:49:52;5.20;99.90
19970;DHT22;10146;47.754;9.566;2023-12-20T07:52:18;5.20;99.90
19970;DHT22;10146;47.754;9.566;2023-12-20T07:54:45;5.20;99.90
19970;DHT22;10146;47.754;9.566;2023-12-20T07:57:11;5.20;99.90
19970;DHT22;10146;47.754;9.566;2023-12-20T07:59:36;5.20;99.90
19970;DHT22;10146;47.754;9.566;2023-12-20T08:02:02;5.20;99.90
19970;DHT22;10146;47.754;9.566;2023-12-20T08:04:29;5.20;99.90
19970;DHT22;10146;47.754;9.566;2023-12-20T08:06:55;5.20;99.90
19970;DHT22;10146;47.754;9.566;2023-12-20T08:09:20;5.30;99.90
19970;DHT22;10146;47.754;9.566;2023-12-20T08:11:47;5.20;99.90
19970;DHT22;10146;47.754;9.566;2023-12-20T08:14:12;5.30;99.90
19970;DHT22;10146;47.754;9.566;2023-12-20T08:16:38;5.30;99.90
19970;DHT22;10146;47.754;9.566;2023-12-20T08:19:04;5.30;99.90
19970;DHT22;10146;47.754;9.566;2023-12-20T08:21:30;5.40;99.90
19970;DHT22;10146;47.754;9.566;2023-12-20T08:23:55;5.40;99.90
19970;DHT22;10146;47.754;9.566;2023-12-20T08:26:24;5.40;99.90
19970;DHT22;10146;47.754;9.566;2023-12-20T08:28:50;5.50;99.90
19970;DHT22;10146;47.754;9.566;2023-12-20T08:31:16;5.60;99.90
19970;DHT22;10146;47.754;9.566;2023-12-20T08:33:46;5.50;99.90
19970;DHT22;10146;47.754;9.566;2023-12-20T08:36:12;5.50;99.90
19970;DHT22;10146;47.754;9.566;2023-12-20T08:38:38;5.60;99.90
19970;DHT22;10146;47.754;9.566;2023-12-20T08:41:07;5.60;99.90
19970;DHT22;10146;47.754;9.566;2023-12-20T08:43:34;5.60;99.90
19970;DHT22;10146;47.754;9.566;2023-12-20T08:46:00;5.60;99.90
19970;DHT22;10146;47.754;9.566;2023-12-20T08:48:26;5.60;99.90
19970;DHT22;10146;47.754;9.566;2023-12-20T08:50:51;5.60;99.90
19970;DHT22;10146;47.754;9.566;2023-12-20T08:53:18;5.60;99.90
19970;DHT22;10146;47.754;9.566;2023-12-20T08:55:44;5.60;99.90
19970;DHT22;10146;47.754;9.566;2023-12-20T08:58:10;5.70;99.90
19970;DHT22;10146;47.754;9.566;2023-12-20T09:00:36;5.70;99.90
19970;DHT22;10146;47.754;9.566;2023-12-20T09:03:02;5.70;99.90
19970;DHT22;10146;47.754;9.566;2023-12-20T09:05:28;5.60;99.90
19970;DHT22;10146;47.754;9.566;2023-12-20T09:07:54;5.70;99.90
19970;DHT22;10146;47.754;9.566;2023-12-20T09:10:19;5.70;99.90
19970;DHT22;10146;47.754;9.566;2023-12-20T09:12:51;5.70;99.90
19970;DHT22;10146;47.754;9.566;2023-12-20T09:15:26;5.70;99.90
19970;DHT22;10146;47.754;9.566;2023-12-20T09:17:52;5.80;99.90
19970;DHT22;10146;47.754;9.566;2023-12-20T09:20:18;5.80;99.90
19970;DHT22;10146;47.754;9.566;2023-12-20T09:22:43;5.90;99.90
19970;DHT22;10146;47.754;9.566;2023-12-20T09:25:12;5.90;99.90
19970;DHT22;10146;47.754;9.566;2023-12-20T09:27:39;5.90;99.90
19970;DHT22;10146;47.754;9.566;2023-12-20T09:30:05;5.90;99.90
19970;DHT22;10146;47.754;9.566;2023-12-20T09:32:33;5.90;99.90
19970;DHT22;10146;47.754;9.566;2023-12-20T09:35:00;6.00;99.90
19970;DHT22;10146;47.754;9.566;2023-12-20T09:37:27;6.00;99.90
19970;DHT22;10146;47.754;9.566;2023-12-20T09:39:53;6.00;99.90
19970;DHT22;10146;47.754;9.566;2023-12-20T09:42:28;6.10;99.90
19970;DHT22;10146;47.754;9.566;2023-12-20T09:44:56;6.10;99.90
19970;DHT22;10146;47.754;9.566;2023-12-20T09:47:27;6.20;99.90
19970;DHT22;10146;47.754;9.566;2023-12-20T09:49:54;6.30;99.90
19970;DHT22;10146;47.754;9.566;2023-12-20T09:52:20;6.40;99.90
19970;DHT22;10146;47.754;9.566;2023-12-20T09:54:49;6.40;99.90
19970;DHT22;10146;47.754;9.566;2023-12-20T09:57:17;6.50;99.90
19970;DHT22;10146;47.754;9.566;2023-12-20T09:59:42;6.60;99.90
19970;DHT22;10146;47.754;9.566;2023-12-20T10:02:12;6.60;99.90
19970;DHT22;10146;47.754;9.566;2023-12-20T10:04:44;6.60;99.90
19970;DHT22;10146;47.754;9.566;2023-12-20T10:07:11;6.60;99.90
19970;DHT22;10146;47.754;9.566;2023-12-20T10:09:37;6.60;99.90
19970;DHT22;10146;47.754;9.566;2023-12-20T10:12:03;6.60;99.90
19970;DHT22;10146;47.754;9.566;2023-12-20T10:14:30;6.50;99.90
19970;DHT22;10146;47.754;9.566;2023-12-20T10:17:04;6.60;99.90
19970;DHT22;10146;47.754;9.566;2023-12-20T10:19:30;6.70;99.90
19970;DHT22;10146;47.754;9.566;2023-12-20T10:22:00;6.80;99.90
19970;DHT22;10146;47.754;9.566;2023-12-20T10:24:28;6.80;99.90
19970;DHT22;10146;47.754;9.566;2023-12-20T10:27:05;6.80;99.90
19970;DHT22;10146;47.754;9.566;2023-12-20T10:29:35;6.70;99.90
19970;DHT22;10146;47.754;9.566;2023-12-20T10:32:24;6.80;99.90
19970;DHT22;10146;47.754;9.566;2023-12-20T10:34:53;6.90;99.90
19970;DHT22;10146;47.754;9.566;2023-12-20T10:37:19;6.90;99.90
19970;DHT22;10146;47.754;9.566;2023-12-20T10:39:50;6.90;99.90
19970;DHT22;10146;47.754;9.566;2023-12-20T10:42:26;7.00;99.90
19970;DHT22;10146;47.754;9.566;2023-12-20T10:44:52;7.00;99.90
19970;DHT22;10146;47.754;9.566;2023-12-20T10:47:19;7.00;99.90
19970;DHT22;10146;47.754;9.566;2023-12-20T10:49:45;7.00;99.90
19970;DHT22;10146;47.754;9.566;2023-12-20T10:52:12;7.10;99.90
19970;DHT22;10146;47.754;9.566;2023-12-20T10:54:39;7.10;99.90
19970;DHT22;10146;47.754;9.566;2023-12-20T10:57:05;7.30;99.90
19970;DHT22;10146;47.754;9.566;2023-12-20T10:59:33;7.50;99.90
19970;DHT22;10146;47.754;9.566;2023-12-20T11:01:59;7.70;99.90
19970;DHT22;10146;47.754;9.566;2023-12-20T11:07:16;8.00;99.90
19970;DHT22;10146;47.754;9.566;2023-12-20T11:09:49;8.10;99.90
19970;DHT22;10146;47.754;9.566;2023-12-20T11:12:22;8.20;99.90
19970;DHT22;10146;47.754;9.566;2023-12-20T11:14:53;8.20;99.90
19970;DHT22;10146;47.754;9.566;2023-12-20T11:17:21;8.10;99.90
19970;DHT22;10146;47.754;9.566;2023-12-20T11:22:22;7.90;99.90
19970;DHT22;10146;47.754;9.566;2023-12-20T11:24:49;8.00;99.90
19970;DHT22;10146;47.754;9.566;2023-12-20T11:27:15;8.10;99.90
19970;DHT22;10146;47.754;9.566;2023-12-20T11:29:41;8.20;99.90
19970;DHT22;10146;47.754;9.566;2023-12-20T11:32:28;8.30;99.90
19970;DHT22;10146;47.754;9.566;2023-12-20T11:35:17;8.30;99.90
19970;DHT22;10146;47.754;9.566;2023-12-20T11:37:43;8.20;99.90
19970;DHT22;10146;47.754;9.566;2023-12-20T11:40:12;8.10;99.90
19970;DHT22;10146;47.754;9.566;2023-12-20T11:42:50;8.00;99.90
19970;DHT22;10146;47.754;9.566;2023-12-20T11:45:18;7.90;99.90
19970;DHT22;10146;47.754;9.566;2023-12-20T11:47:47;7.80;99.90
19970;DHT22;10146;47.754;9.566;2023-12-20T11:50:15;7.70;99.90
19970;DHT22;10146;47.754;9.566;2023-12-20T11:52:41;7.70;99.90
19970;DHT22;10146;47.754;9.566;2023-12-20T11:55:07;7.70;99.90
19970;DHT22;10146;47.754;9.566;2023-12-20T11:57:33;7.70;99.90
19970;DHT22;10146;47.754;9.566;2023-12-20T11:59:59;7.80;99.90
19970;DHT22;10146;47.754;9.566;2023-12-20T12:02:24;7.80;99.90
19970;DHT22;10146;47.754;9.566;2023-12-20T12:04:50;7.80;99.90
19970;DHT22;10146;47.754;9.566;2023-12-20T12:07:17;7.90;99.90
19970;DHT22;10146;47.754;9.566;2023-12-20T12:09:43;7.90;99.90
19970;DHT22;10146;47.754;9.566;2023-12-20T12:12:10;8.00;99.90
19970;DHT22;10146;47.754;9.566;2023-12-20T12:14:35;8.00;99.90
19970;DHT22;10146;47.754;9.566;2023-12-20T12:17:03;8.00;99.90
19970;DHT22;10146;47.754;9.566;2023-12-20T12:19:29;8.10;99.90
19970;DHT22;10146;47.754;9.566;2023-12-20T12:22:15;8.10;99.90
19970;DHT22;10146;47.754;9.566;2023-12-20T12:24:45;7.90;99.90
19970;DHT22;10146;47.754;9.566;2023-12-20T12:27:14;7.80;99.90
19970;DHT22;10146;47.754;9.566;2023-12-20T12:29:40;7.70;99.90
19970;DHT22;10146;47.754;9.566;2023-12-20T12:32:07;7.60;99.90
19970;DHT22;10146;47.754;9.566;2023-12-20T12:34:34;7.60;99.90
19970;DHT22;10146;47.754;9.566;2023-12-20T12:37:00;7.50;99.90
19970;DHT22;10146;47.754;9.566;2023-12-20T12:39:26;7.50;99.90
19970;DHT22;10146;47.754;9.566;2023-12-20T12:41:52;7.40;99.90
19970;DHT22;10146;47.754;9.566;2023-12-20T12:44:18;7.30;99.90
19970;DHT22;10146;47.754;9.566;2023-12-20T12:46:45;7.30;99.90
19970;DHT22;10146;47.754;9.566;2023-12-20T12:49:11;7.40;99.90
19970;DHT22;10146;47.754;9.566;2023-12-20T12:51:37;7.40;99.90
19970;DHT22;10146;47.754;9.566;2023-12-20T12:54:02;7.30;99.90
19970;DHT22;10146;47.754;9.566;2023-12-20T12:56:29;7.40;99.90
19970;DHT22;10146;47.754;9.566;2023-12-20T12:58:54;7.30;99.90
19970;DHT22;10146;47.754;9.566;2023-12-20T13:01:20;7.30;99.90
19970;DHT22;10146;47.754;9.566;2023-12-20T13:03:46;7.30;99.90
19970;DHT22;10146;47.754;9.566;2023-12-20T13:06:12;7.30;99.90
19970;DHT22;10146;47.754;9.566;2023-12-20T13:08:38;7.20;99.90
19970;DHT22;10146;47.754;9.566;2023-12-20T13:11:04;7.20;99.90
19970;DHT22;10146;47.754;9.566;2023-12-20T13:13:30;7.20;99.90
19970;DHT22;10146;47.754;9.566;2023-12-20T13:15:56;7.10;99.90
19970;DHT22;10146;47.754;9.566;2023-12-20T13:18:25;7.10;99.90
19970;DHT22;10146;47.754;9.566;2023-12-20T13:20:50;7.10;99.90
19970;DHT22;10146;47.754;9.566;2023-12-20T13:23:16;7.00;99.90
19970;DHT22;10146;47.754;9.566;2023-12-20T13:25:43;7.00;99.90
19970;DHT22;10146;47.754;9.566;2023-12-20T13:28:11;7.00;99.90
19970;DHT22;10146;47.754;9.566;2023-12-20T13:30:36;7.00;99.90
19970;DHT22;10146;47.754;9.566;2023-12-20T13:33:02;7.10;99.90
19970;DHT22;10146;47.754;9.566;2023-12-20T13:35:28;7.00;99.90
19970;DHT22;10146;47.754;9.566;2023-12-20T13:37:53;7.00;99.90
19970;DHT22;10146;47.754;9.566;2023-12-20T13:40:22;6.90;99.90
19970;DHT22;10146;47.754;9.566;2023-12-20T13:42:48;6.90;99.90
19970;DHT22;10146;47.754;9.566;2023-12-20T13:45:13;6.90;99.90
19970;DHT22;10146;47.754;9.566;2023-12-20T13:47:39;6.80;99.90
19970;DHT22;10146;47.754;9.566;2023-12-20T13:50:05;6.80;99.90
19970;DHT22;10146;47.754;9.566;2023-12-20T13:52:34;6.80;99.90
19970;DHT22;10146;47.754;9.566;2023-12-20T13:54:59;6.80;99.90
19970;DHT22;10146;47.754;9.566;2023-12-20T13:57:25;6.70;99.90
19970;DHT22;10146;47.754;9.566;2023-12-20T13:59:50;6.70;99.90
19970;DHT22;10146;47.754;9.566;2023-12-20T14:02:16;6.70;99.90
19970;DHT22;10146;47.754;9.566;2023-12-20T14:04:42;6.80;99.90
19970;DHT22;10146;47.754;9.566;2023-12-20T14:07:08;6.80;99.90
19970;DHT22;10146;47.754;9.566;2023-12-20T14:09:34;6.80;99.90
19970;DHT22;10146;47.754;9.566;2023-12-20T14:12:00;6.90;99.90
19970;DHT22;10146;47.754;9.566;2023-12-20T14:14:26;6.90;99.90
19970;DHT22;10146;47.754;9.566;2023-12-20T14:16:51;6.90;99.90
19970;DHT22;10146;47.754;9.566;2023-12-20T14:19:17;6.70;99.90
19970;DHT22;10146;47.754;9.566;2023-12-20T14:21:43;6.60;99.90
19970;DHT22;10146;47.754;9.566;2023-12-20T14:24:14;6.60;99.90
19970;DHT22;10146;47.754;9.566;2023-12-20T14:26:40;6.40;99.90
19970;DHT22;10146;47.754;9.566;2023-12-20T14:29:06;6.40;99.90
19970;DHT22;10146;47.754;9.566;2023-12-20T14:31:33;6.40;99.90
19970;DHT22;10146;47.754;9.566;2023-12-20T14:34:01;6.40;99.90
19970;DHT22;10146;47.754;9.566;2023-12-20T14:36:29;6.40;99.90
19970;DHT22;10146;47.754;9.566;2023-12-20T14:38:56;6.40;99.90
19970;DHT22;10146;47.754;9.566;2023-12-20T14:41:22;6.30;99.90
19970;DHT22;10146;47.754;9.566;2023-12-20T14:43:50;6.20;99.90
19970;DHT22;10146;47.754;9.566;2023-12-20T14:46:17;6.10;99.90
19970;DHT22;10146;47.754;9.566;2023-12-20T14:48:42;6.10;99.90
19970;DHT22;10146;47.754;9.566;2023-12-20T14:51:08;6.00;99.90
19970;DHT22;10146;47.754;9.566;2023-12-20T14:53:34;5.90;99.90
19970;DHT22;10146;47.754;9.566;2023-12-20T14:56:03;5.80;99.90
19970;DHT22;10146;47.754;9.566;2023-12-20T14:58:29;5.80;99.90
19970;DHT22;10146;47.754;9.566;2023-12-20T15:00:55;5.70;99.90
19970;DHT22;10146;47.754;9.566;2023-12-20T15:03:21;5.60;99.90
19970;DHT22;10146;47.754;9.566;2023-12-20T15:05:47;5.60;99.90
19970;DHT22;10146;47.754;9.566;2023-12-20T15:08:16;5.50;99.90
19970;DHT22;10146;47.754;9.566;2023-12-20T15:10:41;5.40;99.90
19970;DHT22;10146;47.754;9.566;2023-12-20T15:13:07;5.40;99.90
19970;DHT22;10146;47.754;9.566;2023-12-20T15:15:32;5.40;99.90
19970;DHT22;10146;47.754;9.566;2023-12-20T15:17:59;5.30;99.90
19970;DHT22;10146;47.754;9.566;2023-12-20T15:20:25;5.30;99.90
19970;DHT22;10146;47.754;9.566;2023-12-20T15:22:51;5.20;99.90
19970;DHT22;10146;47.754;9.566;2023-12-20T15:25:18;5.10;99.90
19970;DHT22;10146;47.754;9.566;2023-12-20T15:27:48;5.10;99.90
19970;DHT22;10146;47.754;9.566;2023-12-20T15:30:27;5.10;99.90
19970;DHT22;10146;47.754;9.566;2023-12-20T15:32:52;4.90;99.90
19970;DHT22;10146;47.754;9.566;2023-12-20T15:35:18;4.90;99.90
19970;DHT22;10146;47.754;9.566;2023-12-20T15:37:46;4.80;99.90
19970;DHT22;10146;47.754;9.566;2023-12-20T15:40:11;4.70;99.90
19970;DHT22;10146;47.754;9.566;2023-12-20T15:42:38;4.60;99.90
19970;DHT22;10146;47.754;9.566;2023-12-20T15:45:05;4.50;99.90